createdAt,value
2023-03-01T00:00:09.194Z,10.20
2023-03-01T00:05:14.349Z,13.55
2023-03-01T00:10:17.356Z,10.85
2023-03-01T00:15:21.453Z,12.48
2023-03-01T00:20:24.194Z,11.48
2023-03-01T00:25:27.418Z,14.27
2023-03-01T00:30:31.548Z,13.82
2023-03-01T00:35:34.554Z,13.98
2023-03-01T00:40:37.851Z,16.45
2023-03-01T00:45:41.927Z,13.65
2023-03-01T00:50:44.678Z,14.07
2023-03-01T00:55:47.416Z,12.65
2023-03-01T01:00:51.602Z,10.85
2023-03-01T01:05:54.778Z,13.77
2023-03-01T01:10:57.552Z,13.52
2023-03-01T01:16:04.126Z,12.85
2023-03-01T01:21:09.419Z,15.43
2023-03-01T01:26:15.015Z,11.35
2023-03-01T01:31:20.285Z,11.85
2023-03-01T01:36:23.078Z,10.05
2023-03-01T01:41:27.502Z,9.52
2023-03-01T01:46:34.617Z,10.63
2023-03-01T01:51:41.102Z,10.75
2023-03-01T01:56:49.860Z,10.63
2023-03-01T02:01:54.789Z,8.88
2023-03-01T02:07:03.285Z,8.63
2023-03-01T02:12:06.781Z,8.13
2023-03-01T02:17:12.297Z,5.95
2023-03-01T02:22:22.496Z,7.25
2023-03-01T02:27:33.469Z,7.13
2023-03-01T02:32:37.762Z,5.65
2023-03-01T02:37:41.973Z,4.82
2023-03-01T02:42:51.261Z,6.45
2023-03-01T02:47:57.850Z,7.18
2023-03-01T02:53:04.816Z,5.85
2023-03-01T02:58:07.773Z,6.55
2023-03-01T03:03:15.052Z,6.15
2023-03-01T03:08:24.929Z,6.25
2023-03-01T03:13:29.472Z,6.07
2023-03-01T03:18:33.725Z,6.47
2023-03-01T03:23:37.052Z,7.38
2023-03-01T03:28:41.039Z,7.95
2023-03-01T03:33:45.203Z,5.75
2023-03-01T03:38:48.414Z,5.60
2023-03-01T03:43:51.135Z,6.68
2023-03-01T03:48:55.253Z,5.80
2023-03-01T03:53:58.048Z,6.30
2023-03-01T03:59:00.746Z,6.38
2023-03-01T04:04:05.364Z,6.13
2023-03-01T04:09:08.627Z,7.07
2023-03-01T04:14:11.962Z,5.25
2023-03-01T04:19:16.157Z,7.50
2023-03-01T04:24:18.942Z,5.65
2023-03-01T04:29:21.859Z,5.38
2023-03-01T04:34:27.794Z,5.95
2023-03-01T04:39:30.540Z,5.30
2023-03-01T04:44:33.321Z,4.90
2023-03-01T04:49:37.513Z,5.80
2023-03-01T04:54:40.413Z,4.80
2023-03-01T04:59:43.115Z,4.32
2023-03-01T05:04:47.287Z,5.78
2023-03-01T05:09:50.489Z,7.75
2023-03-01T05:14:53.240Z,5.35
2023-03-01T05:20:00.552Z,5.43
2023-03-01T05:25:03.332Z,9.38
2023-03-01T05:30:14.643Z,6.68
2023-03-01T05:35:20.201Z,4.95
2023-03-01T05:40:25.167Z,6.93
2023-03-01T05:45:29.259Z,4.72
2023-03-01T05:50:36.004Z,6.80
2023-03-01T05:55:39.980Z,5.20
2023-03-01T06:00:43.335Z,6.35
2023-03-01T06:05:47.773Z,6.13
2023-03-01T06:10:50.598Z,6.47
2023-03-01T06:15:53.783Z,7.00
2023-03-01T06:20:58.694Z,6.50
2023-03-01T06:26:02.360Z,7.90
2023-03-01T06:31:10.146Z,6.65
2023-03-01T06:36:14.473Z,7.47
2023-03-01T06:41:17.489Z,6.95
2023-03-01T06:46:20.362Z,9.18
2023-03-01T06:51:24.472Z,8.48
2023-03-01T06:56:27.233Z,10.77
2023-03-01T07:01:30.571Z,11.57
2023-03-01T07:06:35.051Z,9.65
2023-03-01T07:11:37.917Z,10.93
2023-03-01T07:16:40.680Z,8.73
2023-03-01T07:21:44.921Z,11.75
2023-03-01T07:26:50.627Z,10.25
2023-03-01T07:31:53.754Z,10.32
2023-03-01T07:36:57.968Z,8.65
2023-03-01T07:42:00.677Z,8.38
2023-03-01T07:47:03.563Z,11.60
2023-03-01T07:52:07.810Z,25.60
2023-03-01T07:57:10.580Z,12.98
2023-03-01T08:02:13.496Z,12.52
2023-03-01T08:07:17.556Z,12.02
2023-03-01T08:12:20.322Z,11.75
2023-03-01T08:17:23.233Z,13.30
2023-03-01T08:22:27.409Z,15.45
2023-03-01T08:27:30.232Z,14.50
2023-03-01T08:32:38.275Z,18.83
2023-03-01T08:37:42.398Z,15.60
2023-03-01T08:42:45.286Z,15.93
2023-03-01T08:47:48.022Z,16.88
2023-03-01T08:52:52.477Z,17.70
2023-03-01T08:57:55.184Z,15.05
2023-03-01T09:02:57.955Z,15.10
2023-03-01T09:08:02.185Z,18.08
2023-03-01T09:13:04.966Z,17.05
2023-03-01T09:18:07.796Z,14.60
2023-03-01T09:23:11.843Z,17.33
2023-03-01T09:28:28.900Z,17.30
2023-03-01T09:33:34.166Z,21.45
2023-03-01T09:38:38.444Z,17.42
2023-03-01T09:43:46.809Z,16.70
2023-03-01T09:48:54.496Z,20.35
2023-03-01T09:53:59.654Z,20.10
2023-03-01T09:59:13.599Z,20.42
2023-03-01T10:04:30.341Z,19.88
2023-03-01T10:09:37.004Z,18.00
2023-03-01T10:14:47.269Z,18.02
2023-03-01T10:19:49.987Z,18.52
2023-03-01T10:24:55.370Z,22.58
2023-03-01T10:30:20.787Z,17.65
2023-03-01T10:35:26.214Z,16.80
2023-03-01T10:40:30.798Z,13.68
2023-03-01T10:45:36.829Z,18.83
2023-03-01T10:50:42.403Z,20.95
2023-03-01T10:55:46.660Z,19.10
2023-03-01T11:00:52.267Z,18.42
2023-03-01T11:05:59.246Z,18.33
2023-03-01T11:11:21.916Z,15.88
2023-03-01T11:16:34.389Z,15.30
2023-03-01T11:21:40.970Z,16.48
2023-03-01T11:26:49.524Z,14.98
2023-03-01T11:31:57.841Z,12.68
2023-03-01T11:37:05.033Z,17.02
2023-03-01T11:42:19.065Z,13.23
2023-03-01T11:47:41.239Z,12.85
2023-03-01T11:52:53.189Z,12.15
2023-03-01T11:58:20.096Z,11.18
2023-03-01T12:03:32.842Z,4.95
2023-03-01T12:08:39.892Z,6.55
2023-03-01T12:14:09.512Z,10.25
2023-03-01T12:19:45.455Z,10.18
2023-03-01T12:25:03.101Z,9.30
2023-03-01T12:30:27.800Z,10.00
2023-03-01T12:36:00.721Z,8.38
2023-03-01T12:41:29.830Z,10.23
2023-03-01T12:46:54.094Z,14.63
2023-03-01T12:52:01.547Z,10.05
2023-03-01T12:57:11.561Z,9.33
2023-03-01T13:02:24.444Z,7.93
2023-03-01T13:07:32.634Z,8.15
2023-03-01T13:12:53.216Z,12.10
2023-03-01T13:17:58.868Z,10.80
2023-03-01T13:23:09.469Z,8.55
2023-03-01T13:28:43.431Z,8.38
2023-03-01T13:33:48.817Z,10.65
2023-03-01T13:38:59.009Z,9.38
2023-03-01T13:44:01.825Z,8.88
2023-03-01T13:49:06.120Z,9.65
2023-03-01T13:54:14.342Z,15.38
2023-03-01T13:59:19.132Z,11.15
2023-03-01T14:04:26.588Z,10.35
2023-03-01T14:09:32.482Z,9.65
2023-03-01T14:14:49.245Z,11.02
2023-03-01T14:19:59.443Z,12.27
2023-03-01T14:25:04.526Z,14.95
2023-03-01T14:30:16.819Z,11.63
2023-03-01T14:35:25.420Z,9.68
2023-03-01T14:40:30.484Z,9.95
2023-03-01T14:45:33.413Z,11.30
2023-03-01T14:50:43.187Z,10.52
2023-03-01T14:55:49.455Z,8.35
2023-03-01T15:00:54.540Z,10.88
2023-03-01T15:05:59.104Z,9.45
2023-03-01T15:11:07.994Z,9.68
2023-03-01T15:16:14.377Z,10.73
2023-03-01T15:21:20.973Z,10.85
2023-03-01T15:26:27.240Z,11.82
2023-03-01T15:31:33.421Z,9.88
2023-03-01T15:36:44.523Z,11.25
2023-03-01T15:41:49.537Z,11.43
2023-03-01T15:46:52.801Z,12.20
2023-03-01T15:51:57.362Z,10.98
2023-03-01T15:57:01.272Z,12.15
2023-03-01T16:02:04.042Z,12.55
2023-03-01T16:07:08.553Z,14.90
2023-03-01T16:12:15.924Z,17.58
2023-03-01T16:17:18.774Z,20.27
2023-03-01T16:22:26.102Z,22.90
2023-03-01T16:27:29.085Z,20.60
2023-03-01T16:32:31.905Z,17.45
2023-03-01T16:37:37.174Z,22.60
2023-03-01T16:42:40.674Z,16.70
2023-03-01T16:47:45.021Z,15.35
2023-03-01T16:52:49.249Z,17.20
2023-03-01T16:57:52.229Z,17.83
2023-03-01T17:02:56.120Z,18.38
2023-03-01T17:08:00.822Z,14.27
2023-03-01T17:13:03.605Z,13.32
2023-03-01T17:18:06.795Z,13.98
2023-03-01T17:23:10.922Z,13.82
2023-03-01T17:28:14.737Z,13.30
2023-03-01T17:33:18.123Z,12.80
2023-03-01T17:38:22.319Z,13.90
2023-03-01T17:43:25.138Z,17.10
2023-03-01T17:48:28.290Z,16.83
2023-03-01T17:53:32.403Z,22.08
2023-03-01T17:58:35.542Z,17.05
2023-03-01T18:03:39.566Z,17.98
2023-03-01T18:08:45.241Z,16.27
2023-03-01T18:13:49.240Z,15.20
2023-03-01T18:18:55.382Z,13.15
2023-03-01T18:24:00.627Z,15.05
2023-03-01T18:29:04.683Z,17.15
2023-03-01T18:34:07.692Z,16.08
2023-03-01T18:39:11.829Z,14.85
2023-03-01T18:44:14.938Z,13.60
2023-03-01T18:49:18.250Z,18.63
2023-03-01T18:54:22.378Z,18.15
2023-03-01T18:59:25.298Z,21.02
2023-03-01T19:04:28.038Z,19.70
2023-03-01T19:09:32.316Z,22.05
2023-03-01T19:14:35.451Z,22.75
2023-03-01T19:19:40.236Z,23.80
2023-03-01T19:24:44.593Z,28.02
2023-03-01T19:29:47.345Z,30.17
2023-03-01T19:34:50.125Z,31.85
2023-03-01T19:39:54.289Z,33.17
2023-03-01T19:44:57.129Z,34.25
2023-03-01T19:50:00.206Z,38.95
2023-03-01T19:55:09.919Z,40.47
2023-03-01T20:00:14.176Z,40.08
2023-03-01T20:05:17.399Z,41.33
2023-03-01T20:10:26.291Z,41.05
2023-03-01T20:15:31.881Z,39.58
2023-03-01T20:20:34.752Z,45.33
2023-03-01T20:25:41.247Z,41.70
2023-03-01T20:30:44.582Z,42.00
2023-03-01T20:35:47.360Z,45.28
2023-03-01T20:40:51.437Z,42.38
2023-03-01T20:45:54.279Z,37.55
2023-03-01T20:51:01.919Z,41.38
2023-03-01T20:56:07.484Z,46.53
2023-03-01T21:01:11.821Z,42.22
2023-03-01T21:06:14.665Z,40.35
2023-03-01T21:11:19.410Z,39.47
2023-03-01T21:16:22.688Z,42.40
2023-03-01T21:21:25.686Z,39.67
2023-03-01T21:26:29.797Z,37.30
2023-03-01T21:31:34.826Z,53.00
2023-03-01T21:36:37.644Z,35.45
2023-03-01T21:41:41.723Z,41.90
2023-03-01T21:46:44.443Z,40.17
2023-03-01T21:51:47.231Z,38.50
2023-03-01T21:56:51.439Z,40.60
2023-03-01T22:01:54.168Z,40.38
2023-03-01T22:06:56.887Z,36.22
2023-03-01T22:12:02.557Z,39.03
2023-03-01T22:17:05.641Z,36.97
2023-03-01T22:22:08.446Z,36.05
2023-03-01T22:27:12.580Z,40.22
2023-03-01T22:32:15.390Z,37.78
2023-03-01T22:37:18.161Z,37.13
2023-03-01T22:42:22.260Z,39.90
2023-03-01T22:47:35.911Z,37.75
2023-03-01T22:52:39.727Z,37.95
2023-03-01T22:57:43.792Z,35.90
2023-03-01T23:02:46.621Z,36.17
2023-03-01T23:07:49.412Z,39.05
2023-03-01T23:12:55.154Z,37.30
2023-03-01T23:17:57.950Z,39.58
2023-03-01T23:23:01.505Z,34.67
2023-03-01T23:28:07.125Z,36.08
2023-03-01T23:33:09.818Z,36.13
2023-03-01T23:38:12.575Z,37.95
2023-03-01T23:43:17.124Z,37.75
2023-03-01T23:48:20.184Z,44.67
2023-03-01T23:53:23.666Z,34.88
2023-03-01T23:58:29.253Z,35.90
